sensor_id;sensor_type;location;lat;lon;timestamp;pressure;altitude;pressure_sealevel;temperature;humidity
65546;BME280;52177;55.968;37.498;2023-06-14T00:00:20;100115.63;;;11.30;64.06
65546;BME280;52177;55.968;37.498;2023-06-14T00:00:50;100120.16;;;11.30;64.27
65546;BME280;52177;55.968;37.498;2023-06-14T00:01:22;100120.00;;;11.31;64.47
65546;BME280;52177;55.968;37.498;2023-06-14T00:01:53;100122.00;;;11.29;64.14
65546;BME280;52177;55.968;37.498;2023-06-14T00:02:23;100122.00;;;11.29;63.94
65546;BME280;52177;55.968;37.498;2023-06-14T00:02:54;100112.97;;;11.30;64.10
65546;BME280;52177;55.968;37.498;2023-06-14T00:03:25;100120.00;;;11.31;64.15
65546;BME280;52177;55.968;37.498;2023-06-14T00:03:56;100126.16;;;11.32;64.10
65546;BME280;52177;55.968;37.498;2023-06-14T00:04:26;100125.31;;;11.31;64.11
65546;BME280;52177;55.968;37.498;2023-06-14T00:04:57;100125.66;;;11.28;64.03
65546;BME280;52177;55.968;37.498;2023-06-14T00:05:28;100124.16;;;11.26;64.08
65546;BME280;52177;55.968;37.498;2023-06-14T00:05:59;100121.16;;;11.20;64.33
65546;BME280;52177;55.968;37.498;2023-06-14T00:06:30;100123.53;;;11.15;64.38
65546;BME280;52177;55.968;37.498;2023-06-14T00:07:00;100124.03;;;11.11;64.72
65546;BME280;52177;55.968;37.498;2023-06-14T00:07:39;100126.19;;;11.07;64.72
65546;BME280;52177;55.968;37.498;2023-06-14T00:08:13;100123.53;;;11.07;64.62
65546;BME280;52177;55.968;37.498;2023-06-14T00:08:44;100121.53;;;11.09;64.47
65546;BME280;52177;55.968;37.498;2023-06-14T00:09:14;100117.88;;;11.10;64.35
65546;BME280;52177;55.968;37.498;2023-06-14T00:09:45;100121.19;;;11.12;64.49
65546;BME280;52177;55.968;37.498;2023-06-14T00:10:16;100123.69;;;11.14;64.49
65546;BME280;52177;55.968;37.498;2023-06-14T00:10:47;100122.69;;;11.15;64.42
65546;BME280;52177;55.968;37.498;2023-06-14T00:11:17;100123.53;;;11.15;64.52
65546;BME280;52177;55.968;37.498;2023-06-14T00:11:47;100118.03;;;11.17;64.66
65546;BME280;52177;55.968;37.498;2023-06-14T00:12:18;100123.34;;;11.17;64.36
65546;BME280;52177;55.968;37.498;2023-06-14T00:12:48;100117.16;;;11.16;64.35
65546;BME280;52177;55.968;37.498;2023-06-14T00:13:18;100122.50;;;11.16;64.28
65546;BME280;52177;55.968;37.498;2023-06-14T00:13:49;100113.66;;;11.16;64.21
65546;BME280;52177;55.968;37.498;2023-06-14T00:14:19;100119.84;;;11.16;64.35
65546;BME280;52177;55.968;37.498;2023-06-14T00:14:50;100120.84;;;11.15;64.48
65546;BME280;52177;55.968;37.498;2023-06-14T00:15:20;100119.19;;;11.14;64.45
65546;BME280;52177;55.968;37.498;2023-06-14T00:15:51;100120.03;;;11.15;64.26
65546;BME280;52177;55.968;37.498;2023-06-14T00:16:25;100121.19;;;11.12;64.31
65546;BME280;52177;55.968;37.498;2023-06-14T00:16:55;100121.19;;;11.12;64.47
65546;BME280;52177;55.968;37.498;2023-06-14T00:17:28;100122.03;;;11.13;64.42
65546;BME280;52177;55.968;37.498;2023-06-14T00:18:00;100118.69;;;11.11;64.49
65546;BME280;52177;55.968;37.498;2023-06-14T00:18:31;100120.69;;;11.09;64.32
65546;BME280;52177;55.968;37.498;2023-06-14T00:19:01;100117.19;;;11.08;64.54
65546;BME280;52177;55.968;37.498;2023-06-14T00:19:35;100127.72;;;11.10;64.65
65546;BME280;52177;55.968;37.498;2023-06-14T00:20:06;100116.38;;;11.08;64.53
65546;BME280;52177;55.968;37.498;2023-06-14T00:20:37;100122.53;;;11.08;64.34
65546;BME280;52177;55.968;37.498;2023-06-14T00:21:08;100116.38;;;11.08;64.49
65546;BME280;52177;55.968;37.498;2023-06-14T00:21:38;100117.34;;;11.07;64.63
65546;BME280;52177;55.968;37.498;2023-06-14T00:22:09;100116.53;;;11.06;64.79
65546;BME280;52177;55.968;37.498;2023-06-14T00:22:39;100116.53;;;11.06;64.96
65546;BME280;52177;55.968;37.498;2023-06-14T00:23:09;100122.03;;;11.05;64.72
65546;BME280;52177;55.968;37.498;2023-06-14T00:23:40;100118.53;;;11.04;64.81
65546;BME280;52177;55.968;37.498;2023-06-14T00:24:10;100121.19;;;11.04;64.48
65546;BME280;52177;55.968;37.498;2023-06-14T00:24:41;100115.88;;;11.04;64.38
65546;BME280;52177;55.968;37.498;2023-06-14T00:25:11;100120.22;;;11.05;64.31
65546;BME280;52177;55.968;37.498;2023-06-14T00:25:42;100120.22;;;11.05;64.54
65546;BME280;52177;55.968;37.498;2023-06-14T00:26:12;100122.88;;;11.05;64.74
65546;BME280;52177;55.968;37.498;2023-06-14T00:26:42;100121.34;;;11.03;64.77
65546;BME280;52177;55.968;37.498;2023-06-14T00:27:12;100123.38;;;11.01;64.81
65546;BME280;52177;55.968;37.498;2023-06-14T00:27:43;100117.19;;;11.00;64.59
65546;BME280;52177;55.968;37.498;2023-06-14T00:28:13;100120.72;;;11.01;64.57
65546;BME280;52177;55.968;37.498;2023-06-14T00:28:43;100120.72;;;11.01;64.49
65546;BME280;52177;55.968;37.498;2023-06-14T00:29:14;100121.53;;;11.01;64.69
65546;BME280;52177;55.968;37.498;2023-06-14T00:29:44;100117.03;;;11.02;64.67
65546;BME280;52177;55.968;37.498;2023-06-14T00:30:15;100113.53;;;11.01;64.63
65546;BME280;52177;55.968;37.498;2023-06-14T00:30:45;100121.34;;;11.03;64.66
65546;BME280;52177;55.968;37.498;2023-06-14T00:31:16;100117.53;;;11.05;64.59
65546;BME280;52177;55.968;37.498;2023-06-14T00:31:47;100117.69;;;11.04;64.59
65546;BME280;52177;55.968;37.498;2023-06-14T00:32:18;100115.03;;;11.04;64.48
65546;BME280;52177;55.968;37.498;2023-06-14T00:32:49;100112.38;;;11.04;64.32
65546;BME280;52177;55.968;37.498;2023-06-14T00:33:19;100117.69;;;11.04;64.30
65546;BME280;52177;55.968;37.498;2023-06-14T00:33:50;100118.53;;;11.04;64.38
65546;BME280;52177;55.968;37.498;2023-06-14T00:34:20;100122.03;;;11.05;64.29
65546;BME280;52177;55.968;37.498;2023-06-14T00:34:51;100113.34;;;11.03;64.45
65546;BME280;52177;55.968;37.498;2023-06-14T00:35:22;100123.19;;;11.02;64.58
65546;BME280;52177;55.968;37.498;2023-06-14T00:35:52;100124.38;;;10.99;64.67
65546;BME280;52177;55.968;37.498;2023-06-14T00:36:25;100126.22;;;10.99;64.30
65546;BME280;52177;55.968;37.498;2023-06-14T00:36:56;100122.88;;;10.97;64.73
65546;BME280;52177;55.968;37.498;2023-06-14T00:37:26;100124.88;;;10.95;64.56
65546;BME280;52177;55.968;37.498;2023-06-14T00:37:56;100121.38;;;10.94;64.44
65546;BME280;52177;55.968;37.498;2023-06-14T00:38:27;100122.06;;;10.96;64.42
65546;BME280;52177;55.968;37.498;2023-06-14T00:38:57;100122.06;;;10.96;64.50
65546;BME280;52177;55.968;37.498;2023-06-14T00:39:27;100121.91;;;10.98;64.65
65546;BME280;52177;55.968;37.498;2023-06-14T00:39:58;100124.56;;;10.98;64.71
65546;BME280;52177;55.968;37.498;2023-06-14T00:40:28;100124.72;;;10.96;64.69
65546;BME280;52177;55.968;37.498;2023-06-14T00:40:58;100116.72;;;10.96;64.48
65546;BME280;52177;55.968;37.498;2023-06-14T00:41:29;100125.38;;;10.98;64.14
65546;BME280;52177;55.968;37.498;2023-06-14T00:41:59;100121.69;;;10.99;63.89
65546;BME280;52177;55.968;37.498;2023-06-14T00:42:30;100119.03;;;10.99;64.13
65546;BME280;52177;55.968;37.498;2023-06-14T00:43:01;100116.38;;;10.99;64.01
65546;BME280;52177;55.968;37.498;2023-06-14T00:43:31;100124.38;;;10.99;63.90
65546;BME280;52177;55.968;37.498;2023-06-14T00:44:02;100120.06;;;10.98;64.03
65546;BME280;52177;55.968;37.498;2023-06-14T00:44:33;100120.88;;;10.99;63.83
65546;BME280;52177;55.968;37.498;2023-06-14T00:45:04;100126.22;;;10.99;63.86
65546;BME280;52177;55.968;37.498;2023-06-14T00:45:34;100119.88;;;11.00;63.90
65546;BME280;52177;55.968;37.498;2023-06-14T00:46:06;100115.53;;;10.99;64.14
65546;BME280;52177;55.968;37.498;2023-06-14T00:46:36;100118.22;;;10.99;64.26
65546;BME280;52177;55.968;37.498;2023-06-14T00:47:06;100123.53;;;10.99;64.22
65546;BME280;52177;55.968;37.498;2023-06-14T00:47:37;100122.53;;;11.00;64.29
65546;BME280;52177;55.968;37.498;2023-06-14T00:48:09;100122.53;;;11.00;64.34
65546;BME280;52177;55.968;37.498;2023-06-14T00:48:39;100121.69;;;10.99;64.25
65546;BME280;52177;55.968;37.498;2023-06-14T00:49:10;100122.53;;;11.00;64.29
65546;BME280;52177;55.968;37.498;2023-06-14T00:49:42;100122.72;;;10.98;64.42
65546;BME280;52177;55.968;37.498;2023-06-14T00:50:12;100120.06;;;10.98;64.38
65546;BME280;52177;55.968;37.498;2023-06-14T00:50:44;100117.53;;;10.97;64.32
65546;BME280;52177;55.968;37.498;2023-06-14T00:51:18;100117.69;;;10.95;64.59
65546;BME280;52177;55.968;37.498;2023-06-14T00:51:49;100120.56;;;10.94;64.86
65546;BME280;52177;55.968;37.498;2023-06-14T00:52:20;100122.41;;;10.93;64.76
65546;BME280;52177;55.968;37.498;2023-06-14T00:52:50;100123.38;;;10.92;64.81
65546;BME280;52177;55.968;37.498;2023-06-14T00:53:21;100117.38;;;10.90;65.08
65546;BME280;52177;55.968;37.498;2023-06-14T00:53:53;100116.72;;;10.88;64.76
65546;BME280;52177;55.968;37.498;2023-06-14T00:54:23;100120.38;;;10.87;64.78
65546;BME280;52177;55.968;37.498;2023-06-14T00:54:53;100121.38;;;10.86;64.79
65546;BME280;52177;55.968;37.498;2023-06-14T00:55:24;100121.56;;;10.85;64.80
65546;BME280;52177;55.968;37.498;2023-06-14T00:55:54;100117.22;;;10.84;64.77
65546;BME280;52177;55.968;37.498;2023-06-14T00:56:25;100115.41;;;10.84;64.54
65546;BME280;52177;55.968;37.498;2023-06-14T00:56:55;100124.38;;;10.83;64.45
65546;BME280;52177;55.968;37.498;2023-06-14T00:57:26;100118.91;;;10.85;64.49
65546;BME280;52177;55.968;37.498;2023-06-14T00:57:57;100117.22;;;10.84;64.59
65546;BME280;52177;55.968;37.498;2023-06-14T00:58:27;100116.91;;;10.87;64.72
65546;BME280;52177;55.968;37.498;2023-06-14T00:58:58;100110.72;;;10.86;64.71
65546;BME280;52177;55.968;37.498;2023-06-14T00:59:29;100117.88;;;10.86;64.92
65546;BME280;52177;55.968;37.498;2023-06-14T01:00:00;100121.38;;;10.86;64.62
65546;BME280;52177;55.968;37.498;2023-06-14T01:00:30;100120.53;;;10.86;64.74
65546;BME280;52177;55.968;37.498;2023-06-14T01:01:01;100115.06;;;10.87;64.85
65546;BME280;52177;55.968;37.498;2023-06-14T01:01:32;100118.56;;;10.88;64.87
65546;BME280;52177;55.968;37.498;2023-06-14T01:02:05;100125.06;;;10.85;65.18
65546;BME280;52177;55.968;37.498;2023-06-14T01:02:37;100117.88;;;10.86;65.13
65546;BME280;52177;55.968;37.498;2023-06-14T01:03:07;100117.06;;;10.85;65.25
65546;BME280;52177;55.968;37.498;2023-06-14T01:03:42;100116.38;;;10.83;65.25
65546;BME280;52177;55.968;37.498;2023-06-14T01:04:13;100125.41;;;10.82;65.11
65546;BME280;52177;55.968;37.498;2023-06-14T01:04:49;100124.38;;;10.83;64.88
65546;BME280;52177;55.968;37.498;2023-06-14T01:05:20;100123.56;;;10.83;64.73
65546;BME280;52177;55.968;37.498;2023-06-14T01:05:56;100120.22;;;10.81;65.00
65546;BME280;52177;55.968;37.498;2023-06-14T01:08:57;100121.56;;;10.76;65.21
65546;BME280;52177;55.968;37.498;2023-06-14T01:11:02;100120.41;;;10.71;65.36
65546;BME280;52177;55.968;37.498;2023-06-14T01:11:58;100123.41;;;10.68;65.52
65546;BME280;52177;55.968;37.498;2023-06-14T01:13:15;100127.91;;;10.59;65.84
65546;BME280;52177;55.968;37.498;2023-06-14T01:13:51;100123.06;;;10.54;65.87
65546;BME280;52177;55.968;37.498;2023-06-14T01:14:22;100127.56;;;10.54;65.84
65546;BME280;52177;55.968;37.498;2023-06-14T01:14:54;100128.41;;;10.54;65.85
65546;BME280;52177;55.968;37.498;2023-06-14T01:15:26;100130.03;;;10.55;65.99
65546;BME280;52177;55.968;37.498;2023-06-14T01:15:58;100130.72;;;10.57;66.06
65546;BME280;52177;55.968;37.498;2023-06-14T01:16:30;100129.75;;;10.59;65.91
65546;BME280;52177;55.968;37.498;2023-06-14T01:17:02;100130.56;;;10.59;65.85
65546;BME280;52177;55.968;37.498;2023-06-14T01:17:33;100128.56;;;10.61;65.75
65546;BME280;52177;55.968;37.498;2023-06-14T01:18:04;100128.22;;;10.64;65.67
65546;BME280;52177;55.968;37.498;2023-06-14T01:18:35;100128.06;;;10.66;65.48
65546;BME280;52177;55.968;37.498;2023-06-14T01:19:09;100133.06;;;10.69;65.40
65546;BME280;52177;55.968;37.498;2023-06-14T01:19:50;100132.22;;;10.68;65.49
65546;BME280;52177;55.968;37.498;2023-06-14T01:20:29;100130.41;;;10.69;65.62
65546;BME280;52177;55.968;37.498;2023-06-14T01:21:02;100128.56;;;10.69;65.51
65546;BME280;52177;55.968;37.498;2023-06-14T01:21:39;100131.41;;;10.68;65.64
65546;BME280;52177;55.968;37.498;2023-06-14T01:22:12;100122.75;;;10.66;65.74
65546;BME280;52177;55.968;37.498;2023-06-14T01:22:51;100124.72;;;10.64;65.77
65546;BME280;52177;55.968;37.498;2023-06-14T01:23:23;100125.91;;;10.61;65.86
65546;BME280;52177;55.968;37.498;2023-06-14T01:23:54;100125.06;;;10.61;65.95
65546;BME280;52177;55.968;37.498;2023-06-14T01:24:24;100130.56;;;10.59;66.02
65546;BME280;52177;55.968;37.498;2023-06-14T01:24:55;100125.56;;;10.56;65.89
65546;BME280;52177;55.968;37.498;2023-06-14T01:25:26;100128.41;;;10.54;66.24
65546;BME280;52177;55.968;37.498;2023-06-14T01:25:56;100123.88;;;10.55;66.08
65546;BME280;52177;55.968;37.498;2023-06-14T01:26:27;100125.56;;;10.56;66.17
65546;BME280;52177;55.968;37.498;2023-06-14T01:27:00;100125.38;;;10.57;66.22
65546;BME280;52177;55.968;37.498;2023-06-14T01:27:32;100124.41;;;10.59;66.13
65546;BME280;52177;55.968;37.498;2023-06-14T01:28:05;100125.06;;;10.61;66.23
65546;BME280;52177;55.968;37.498;2023-06-14T01:28:42;100125.06;;;10.61;66.45
65546;BME280;52177;55.968;37.498;2023-06-14T01:29:18;100125.06;;;10.61;66.44
65546;BME280;52177;55.968;37.498;2023-06-14T01:29:51;100129.41;;;10.62;66.37
65546;BME280;52177;55.968;37.498;2023-06-14T01:30:27;100126.72;;;10.62;66.14
65546;BME280;52177;55.968;37.498;2023-06-14T01:31:00;100126.72;;;10.62;66.37
65546;BME280;52177;55.968;37.498;2023-06-14T01:31:34;100131.06;;;10.63;66.30
65546;BME280;52177;55.968;37.498;2023-06-14T01:32:11;100130.22;;;10.62;66.27
65546;BME280;52177;55.968;37.498;2023-06-14T01:32:41;100123.72;;;10.65;66.18
65546;BME280;52177;55.968;37.498;2023-06-14T01:33:13;100130.56;;;10.67;66.14
65546;BME280;52177;55.968;37.498;2023-06-14T01:33:45;100130.41;;;10.69;66.13
65546;BME280;52177;55.968;37.498;2023-06-14T01:34:16;100128.75;;;10.68;66.46
65546;BME280;52177;55.968;37.498;2023-06-14T01:34:46;100127.72;;;10.69;66.31
65546;BME280;52177;55.968;37.498;2023-06-14T01:35:17;100124.22;;;10.68;66.38
65546;BME280;52177;55.968;37.498;2023-06-14T01:35:50;100123.41;;;10.68;66.38
65546;BME280;52177;55.968;37.498;2023-06-14T01:36:22;100119.88;;;10.67;66.25
65546;BME280;52177;55.968;37.498;2023-06-14T01:36:55;100125.22;;;10.67;66.24
65546;BME280;52177;55.968;37.498;2023-06-14T01:37:26;100123.41;;;10.68;66.36
65546;BME280;52177;55.968;37.498;2023-06-14T01:37:57;100117.22;;;10.67;66.37
65546;BME280;52177;55.968;37.498;2023-06-14T01:38:29;100123.56;;;10.66;66.43
65546;BME280;52177;55.968;37.498;2023-06-14T01:39:01;100121.72;;;10.67;66.60
65546;BME280;52177;55.968;37.498;2023-06-14T01:39:32;100122.56;;;10.67;66.54
65546;BME280;52177;55.968;37.498;2023-06-14T01:40:04;100121.91;;;10.65;66.51
65546;BME280;52177;55.968;37.498;2023-06-14T01:40:36;100117.41;;;10.66;66.90
65546;BME280;52177;55.968;37.498;2023-06-14T01:41:08;100118.06;;;10.68;66.81
65546;BME280;52177;55.968;37.498;2023-06-14T01:41:40;100123.22;;;10.69;66.44
65546;BME280;52177;55.968;37.498;2023-06-14T01:42:12;100123.06;;;10.71;66.59
65546;BME280;52177;55.968;37.498;2023-06-14T01:42:43;100118.41;;;10.73;66.69
65546;BME280;52177;55.968;37.498;2023-06-14T01:43:16;100119.91;;;10.75;66.66
65546;BME280;52177;55.968;37.498;2023-06-14T01:43:47;100120.72;;;10.76;66.57
65546;BME280;52177;55.968;37.498;2023-06-14T01:44:19;100126.72;;;10.78;66.74
65546;BME280;52177;55.968;37.498;2023-06-14T01:44:51;100121.25;;;10.80;66.34
65546;BME280;52177;55.968;37.498;2023-06-14T01:45:22;100125.41;;;10.82;66.34
65546;BME280;52177;55.968;37.498;2023-06-14T01:45:54;100124.38;;;10.83;66.07
65546;BME280;52177;55.968;37.498;2023-06-14T01:46:26;100127.06;;;10.83;66.05
65546;BME280;52177;55.968;37.498;2023-06-14T01:46:56;100127.88;;;10.84;66.22
65546;BME280;52177;55.968;37.498;2023-06-14T01:47:27;100124.38;;;10.83;66.15
65546;BME280;52177;55.968;37.498;2023-06-14T01:47:58;100120.06;;;10.82;66.32
65546;BME280;52177;55.968;37.498;2023-06-14T01:48:28;100124.72;;;10.80;66.40
65546;BME280;52177;55.968;37.498;2023-06-14T01:48:59;100122.88;;;10.81;66.44
65546;BME280;52177;55.968;37.498;2023-06-14T01:49:29;100119.41;;;10.80;66.37
65546;BME280;52177;55.968;37.498;2023-06-14T01:50:00;100122.88;;;10.81;66.22
65546;BME280;52177;55.968;37.498;2023-06-14T01:50:31;100124.56;;;10.82;66.38
65546;BME280;52177;55.968;37.498;2023-06-14T01:51:01;100114.72;;;10.82;66.42
65546;BME280;52177;55.968;37.498;2023-06-14T01:51:31;100116.38;;;10.83;66.69
65546;BME280;52177;55.968;37.498;2023-06-14T01:52:02;100124.38;;;10.83;66.58
65546;BME280;52177;55.968;37.498;2023-06-14T01:52:32;100121.72;;;10.83;66.75
65546;BME280;52177;55.968;37.498;2023-06-14T01:53:07;100128.91;;;10.83;66.59
65546;BME280;52177;55.968;37.498;2023-06-14T01:53:37;100121.72;;;10.83;66.80
65546;BME280;52177;55.968;37.498;2023-06-14T01:54:08;100127.06;;;10.83;66.84
65546;BME280;52177;55.968;37.498;2023-06-14T01:54:38;100123.41;;;10.84;66.82
65546;BME280;52177;55.968;37.498;2023-06-14T01:55:12;100125.06;;;10.85;67.00
65546;BME280;52177;55.968;37.498;2023-06-14T01:55:43;100120.53;;;10.86;66.98
65546;BME280;52177;55.968;37.498;2023-06-14T01:56:14;100123.06;;;10.87;67.15
65546;BME280;52177;55.968;37.498;2023-06-14T01:56:45;100126.41;;;10.89;67.16
65546;BME280;52177;55.968;37.498;2023-06-14T01:57:15;100126.88;;;10.93;66.99
65546;BME280;52177;55.968;37.498;2023-06-14T01:57:46;100126.72;;;10.94;67.02
65546;BME280;52177;55.968;37.498;2023-06-14T01:58:16;100132.56;;;10.98;67.04
65546;BME280;52177;55.968;37.498;2023-06-14T01:58:47;100129.56;;;11.01;66.95
65546;BME280;52177;55.968;37.498;2023-06-14T01:59:18;100127.56;;;11.03;66.85
65546;BME280;52177;55.968;37.498;2023-06-14T01:59:49;100130.88;;;11.05;66.91
65546;BME280;52177;55.968;37.498;2023-06-14T02:00:20;100128.03;;;11.07;66.85
65546;BME280;52177;55.968;37.498;2023-06-14T02:00:51;100125.03;;;11.10;66.74
65546;BME280;52177;55.968;37.498;2023-06-14T02:01:25;100127.38;;;11.13;66.57
65546;BME280;52177;55.968;37.498;2023-06-14T02:01:56;100131.38;;;11.17;66.58
65546;BME280;52177;55.968;37.498;2023-06-14T02:02:27;100124.84;;;11.19;66.53
65546;BME280;52177;55.968;37.498;2023-06-14T02:02:57;100130.00;;;11.21;66.14
65546;BME280;52177;55.968;37.498;2023-06-14T02:03:28;100132.34;;;11.24;66.19
65546;BME280;52177;55.968;37.498;2023-06-14T02:03:58;100122.34;;;11.26;66.33
65546;BME280;52177;55.968;37.498;2023-06-14T02:04:28;100122.16;;;11.28;66.32
65546;BME280;52177;55.968;37.498;2023-06-14T02:04:59;100124.50;;;11.31;66.30
65546;BME280;52177;55.968;37.498;2023-06-14T02:05:30;100121.63;;;11.32;66.18
65546;BME280;52177;55.968;37.498;2023-06-14T02:06:00;100122.31;;;11.34;66.11
65546;BME280;52177;55.968;37.498;2023-06-14T02:06:31;100126.63;;;11.35;66.09
65546;BME280;52177;55.968;37.498;2023-06-14T02:07:01;100125.47;;;11.38;66.01
65546;BME280;52177;55.968;37.498;2023-06-14T02:07:32;100125.28;;;11.39;66.07
65546;BME280;52177;55.968;37.498;2023-06-14T02:08:03;100127.78;;;11.41;65.93
65546;BME280;52177;55.968;37.498;2023-06-14T02:08:33;100129.13;;;11.45;66.08
65546;BME280;52177;55.968;37.498;2023-06-14T02:09:04;100130.94;;;11.45;65.99
65546;BME280;52177;55.968;37.498;2023-06-14T02:09:34;100122.78;;;11.46;65.96
65546;BME280;52177;55.968;37.498;2023-06-14T02:10:05;100125.09;;;11.49;66.02
65546;BME280;52177;55.968;37.498;2023-06-14T02:10:36;100124.94;;;11.51;66.08
65546;BME280;52177;55.968;37.498;2023-06-14T02:11:06;100130.09;;;11.52;66.00
65546;BME280;52177;55.968;37.498;2023-06-14T02:11:37;100126.25;;;11.55;65.97
65546;BME280;52177;55.968;37.498;2023-06-14T02:12:08;100130.41;;;11.57;65.86
65546;BME280;52177;55.968;37.498;2023-06-14T02:12:38;100131.25;;;11.58;65.93
65546;BME280;52177;55.968;37.498;2023-06-14T02:13:09;100130.25;;;11.59;65.90
65546;BME280;52177;55.968;37.498;2023-06-14T02:13:39;100128.88;;;11.63;65.85
65546;BME280;52177;55.968;37.498;2023-06-14T02:14:09;100132.22;;;11.65;65.95
65546;BME280;52177;55.968;37.498;2023-06-14T02:14:42;100135.53;;;11.67;65.76
65546;BME280;52177;55.968;37.498;2023-06-14T02:15:12;100133.53;;;11.69;65.91
65546;BME280;52177;55.968;37.498;2023-06-14T02:15:48;100137.69;;;11.72;65.96
65546;BME280;52177;55.968;37.498;2023-06-14T02:16:21;100132.84;;;11.75;65.75
65546;BME280;52177;55.968;37.498;2023-06-14T02:16:52;100137.84;;;11.78;65.71
65546;BME280;52177;55.968;37.498;2023-06-14T02:17:23;100138.50;;;11.80;65.60
65546;BME280;52177;55.968;37.498;2023-06-14T02:17:54;100130.97;;;11.84;65.34
65546;BME280;52177;55.968;37.498;2023-06-14T02:18:24;100138.81;;;11.86;65.36
65546;BME280;52177;55.968;37.498;2023-06-14T02:18:55;100137.66;;;11.88;65.54
65546;BME280;52177;55.968;37.498;2023-06-14T02:19:25;100138.31;;;11.90;65.39
65546;BME280;52177;55.968;37.498;2023-06-14T02:19:56;100139.00;;;11.92;65.38
65546;BME280;52177;55.968;37.498;2023-06-14T02:20:27;100138.63;;;11.95;65.34
65546;BME280;52177;55.968;37.498;2023-06-14T02:20:58;100141.97;;;11.97;65.29
65546;BME280;52177;55.968;37.498;2023-06-14T02:21:28;100137.28;;;11.99;65.07
65546;BME280;52177;55.968;37.498;2023-06-14T02:21:59;100140.63;;;12.01;65.22
65546;BME280;52177;55.968;37.498;2023-06-14T02:22:29;100140.41;;;12.03;65.32
65546;BME280;52177;55.968;37.498;2023-06-14T02:23:00;100139.22;;;12.06;65.31
65546;BME280;52177;55.968;37.498;2023-06-14T02:23:31;100139.06;;;12.07;65.27
65546;BME280;52177;55.968;37.498;2023-06-14T02:24:02;100137.72;;;12.11;65.25
65546;BME280;52177;55.968;37.498;2023-06-14T02:24:32;100143.72;;;12.13;65.20
65546;BME280;52177;55.968;37.498;2023-06-14T02:25:03;100141.72;;;12.15;64.83
65546;BME280;52177;55.968;37.498;2023-06-14T02:25:33;100137.66;;;12.19;64.72
65546;BME280;52177;55.968;37.498;2023-06-14T02:26:04;100142.84;;;12.21;64.70
65546;BME280;52177;55.968;37.498;2023-06-14T02:26:35;100144.97;;;12.25;64.57
65546;BME280;52177;55.968;37.498;2023-06-14T02:27:05;100135.94;;;12.27;64.46
65546;BME280;52177;55.968;37.498;2023-06-14T02:27:36;100140.94;;;12.30;64.56
65546;BME280;52177;55.968;37.498;2023-06-14T02:28:07;100128.25;;;12.32;64.34
65546;BME280;52177;55.968;37.498;2023-06-14T02:28:37;100133.22;;;12.35;64.14
65546;BME280;52177;55.968;37.498;2023-06-14T02:29:07;100133.88;;;12.37;64.18
65546;BME280;52177;55.968;37.498;2023-06-14T02:29:42;100128.16;;;12.40;64.25
65546;BME280;52177;55.968;37.498;2023-06-14T02:30:13;100132.53;;;12.41;64.15
65546;BME280;52177;55.968;37.498;2023-06-14T02:30:44;100130.47;;;12.43;64.15
65546;BME280;52177;55.968;37.498;2023-06-14T02:31:14;100126.44;;;12.47;63.84
65546;BME280;52177;55.968;37.498;2023-06-14T02:31:44;100131.44;;;12.50;63.70
65546;BME280;52177;55.968;37.498;2023-06-14T02:32:17;100130.28;;;12.53;63.70
65546;BME280;52177;55.968;37.498;2023-06-14T02:32:47;100138.91;;;12.55;63.74
65546;BME280;52177;55.968;37.498;2023-06-14T02:33:18;100133.22;;;12.58;63.50
65546;BME280;52177;55.968;37.498;2023-06-14T02:33:49;100128.53;;;12.60;63.31
65546;BME280;52177;55.968;37.498;2023-06-14T02:34:19;100134.53;;;12.62;63.27
65546;BME280;52177;55.968;37.498;2023-06-14T02:34:50;100144.06;;;12.64;63.43
65546;BME280;52177;55.968;37.498;2023-06-14T02:35:21;100133.97;;;12.66;63.28
65546;BME280;52177;55.968;37.498;2023-06-14T02:35:52;100131.78;;;12.70;63.35
65546;BME280;52177;55.968;37.498;2023-06-14T02:36:23;100126.28;;;12.72;63.29
65546;BME280;52177;55.968;37.498;2023-06-14T02:36:53;100135.13;;;12.72;63.16
65546;BME280;52177;55.968;37.498;2023-06-14T02:37:24;100132.09;;;12.75;63.14
65546;BME280;52177;55.968;37.498;2023-06-14T02:37:54;100134.41;;;12.78;63.02
65546;BME280;52177;55.968;37.498;2023-06-14T02:38:24;100134.22;;;12.80;62.96
65546;BME280;52177;55.968;37.498;2023-06-14T02:38:56;100131.16;;;12.83;62.93
65546;BME280;52177;55.968;37.498;2023-06-14T02:39:27;100131.00;;;12.84;63.00
65546;BME280;52177;55.968;37.498;2023-06-14T02:39:58;100137.84;;;12.87;62.75
65546;BME280;52177;55.968;37.498;2023-06-14T02:40:29;100131.28;;;12.89;62.67
65546;BME280;52177;55.968;37.498;2023-06-14T02:40:59;100127.78;;;12.89;62.62
65546;BME280;52177;55.968;37.498;2023-06-14T02:41:31;100131.94;;;12.92;62.59
65546;BME280;52177;55.968;37.498;2023-06-14T02:42:02;100130.75;;;12.94;62.48
65546;BME280;52177;55.968;37.498;2023-06-14T02:42:32;100126.03;;;12.96;62.30
65546;BME280;52177;55.968;37.498;2023-06-14T02:43:03;100129.38;;;12.98;61.94
65546;BME280;52177;55.968;37.498;2023-06-14T02:43:33;100128.19;;;13.01;62.23
65546;BME280;52177;55.968;37.498;2023-06-14T02:44:04;100138.50;;;13.04;62.40
65546;BME280;52177;55.968;37.498;2023-06-14T02:44:34;100127.63;;;13.05;61.92
65546;BME280;52177;55.968;37.498;2023-06-14T02:45:06;100136.97;;;13.09;61.98
65546;BME280;52177;55.968;37.498;2023-06-14T02:45:37;100138.44;;;13.12;61.91
65546;BME280;52177;55.968;37.498;2023-06-14T02:46:07;100132.91;;;13.14;61.59
65546;BME280;52177;55.968;37.498;2023-06-14T02:46:38;100139.56;;;13.18;61.71